sensor_id;sensor_type;location;lat;lon;timestamp;P1;durP1;ratioP1;P2;durP2;ratioP2
63398;SDS011;49533;-34.520;150.798;2023-11-25T00:00:30;1.95;;;1.85;;
63398;SDS011;49533;-34.520;150.798;2023-11-25T00:03:19;2.78;;;2.15;;
63398;SDS011;49533;-34.520;150.798;2023-11-25T00:05:57;2.20;;;2.00;;
63398;SDS011;49533;-34.520;150.798;2023-11-25T00:08:37;2.13;;;2.03;;
63398;SDS011;49533;-34.520;150.798;2023-11-25T00:11:10;2.42;;;2.22;;
63398;SDS011;49533;-34.520;150.798;2023-11-25T00:13:44;3.63;;;2.75;;
63398;SDS011;49533;-34.520;150.798;2023-11-25T00:16:18;2.63;;;2.28;;
63398;SDS011;49533;-34.520;150.798;2023-11-25T00:18:56;3.78;;;2.65;;
63398;SDS011;49533;-34.520;150.798;2023-11-25T00:21:34;3.08;;;2.10;;
63398;SDS011;49533;-34.520;150.798;2023-11-25T00:30:06;2.17;;;1.95;;
63398;SDS011;49533;-34.520;150.798;2023-11-25T00:32:54;2.42;;;2.17;;
63398;SDS011;49533;-34.520;150.798;2023-11-25T00:38:30;2.28;;;1.83;;
63398;SDS011;49533;-34.520;150.798;2023-11-25T00:55:35;2.00;;;1.90;;
63398;SDS011;49533;-34.520;150.798;2023-11-25T01:03:45;3.30;;;2.20;;
63398;SDS011;49533;-34.520;150.798;2023-11-25T01:06:33;2.20;;;2.10;;
63398;SDS011;49533;-34.520;150.798;2023-11-25T01:09:22;2.38;;;1.88;;
63398;SDS011;49533;-34.520;150.798;2023-11-25T01:11:56;2.83;;;2.25;;
63398;SDS011;49533;-34.520;150.798;2023-11-25T01:20:10;2.38;;;2.17;;
63398;SDS011;49533;-34.520;150.798;2023-11-25T01:22:41;2.70;;;2.15;;
63398;SDS011;49533;-34.520;150.798;2023-11-25T01:25:25;2.60;;;2.40;;
63398;SDS011;49533;-34.520;150.798;2023-11-25T01:28:22;2.45;;;2.15;;
63398;SDS011;49533;-34.520;150.798;2023-11-25T01:30:52;3.58;;;2.67;;
63398;SDS011;49533;-34.520;150.798;2023-11-25T01:33:22;4.25;;;3.20;;
63398;SDS011;49533;-34.520;150.798;2023-11-25T01:35:59;3.50;;;3.20;;
63398;SDS011;49533;-34.520;150.798;2023-11-25T01:38:30;2.97;;;2.70;;
63398;SDS011;49533;-34.520;150.798;2023-11-25T01:41:06;3.92;;;3.00;;
63398;SDS011;49533;-34.520;150.798;2023-11-25T01:43:37;2.78;;;2.58;;
63398;SDS011;49533;-34.520;150.798;2023-11-25T01:46:22;3.78;;;3.38;;
63398;SDS011;49533;-34.520;150.798;2023-11-25T01:49:09;4.35;;;3.70;;
63398;SDS011;49533;-34.520;150.798;2023-11-25T01:51:53;3.22;;;2.80;;
63398;SDS011;49533;-34.520;150.798;2023-11-25T01:54:24;4.97;;;3.33;;
63398;SDS011;49533;-34.520;150.798;2023-11-25T01:59:32;4.53;;;3.20;;
63398;SDS011;49533;-34.520;150.798;2023-11-25T02:02:28;8.38;;;3.58;;
63398;SDS011;49533;-34.520;150.798;2023-11-25T02:05:52;3.65;;;3.35;;
63398;SDS011;49533;-34.520;150.798;2023-11-25T02:08:30;5.18;;;4.00;;
63398;SDS011;49533;-34.520;150.798;2023-11-25T02:11:24;6.38;;;3.80;;
63398;SDS011;49533;-34.520;150.798;2023-11-25T02:16:47;4.50;;;4.10;;
63398;SDS011;49533;-34.520;150.798;2023-11-25T02:19:31;4.65;;;4.25;;
63398;SDS011;49533;-34.520;150.798;2023-11-25T02:22:07;4.30;;;4.00;;
63398;SDS011;49533;-34.520;150.798;2023-11-25T02:24:42;5.57;;;4.10;;
63398;SDS011;49533;-34.520;150.798;2023-11-25T02:27:18;4.70;;;3.63;;
63398;SDS011;49533;-34.520;150.798;2023-11-25T02:30:25;5.57;;;4.05;;
63398;SDS011;49533;-34.520;150.798;2023-11-25T02:36:00;4.30;;;3.90;;
63398;SDS011;49533;-34.520;150.798;2023-11-25T02:41:52;4.10;;;3.70;;
63398;SDS011;49533;-34.520;150.798;2023-11-25T02:44:23;7.82;;;4.47;;
63398;SDS011;49533;-34.520;150.798;2023-11-25T02:46:57;5.20;;;4.70;;
63398;SDS011;49533;-34.520;150.798;2023-11-25T02:49:46;4.78;;;4.32;;
63398;SDS011;49533;-34.520;150.798;2023-11-25T02:52:19;5.38;;;4.88;;
63398;SDS011;49533;-34.520;150.798;2023-11-25T02:54:51;5.40;;;5.00;;
63398;SDS011;49533;-34.520;150.798;2023-11-25T02:57:50;6.78;;;4.90;;
63398;SDS011;49533;-34.520;150.798;2023-11-25T03:00:40;8.35;;;5.18;;
63398;SDS011;49533;-34.520;150.798;2023-11-25T03:03:13;10.50;;;5.22;;
63398;SDS011;49533;-34.520;150.798;2023-11-25T03:05:54;5.75;;;4.72;;
63398;SDS011;49533;-34.520;150.798;2023-11-25T03:08:53;6.85;;;4.80;;
63398;SDS011;49533;-34.520;150.798;2023-11-25T03:11:58;5.38;;;4.70;;
63398;SDS011;49533;-34.520;150.798;2023-11-25T03:14:54;7.55;;;4.75;;
63398;SDS011;49533;-34.520;150.798;2023-11-25T03:20:17;5.93;;;4.30;;
63398;SDS011;49533;-34.520;150.798;2023-11-25T03:23:23;4.93;;;4.38;;
63398;SDS011;49533;-34.520;150.798;2023-11-25T03:25:59;5.07;;;4.30;;
63398;SDS011;49533;-34.520;150.798;2023-11-25T03:29:00;5.03;;;4.38;;
63398;SDS011;49533;-34.520;150.798;2023-11-25T03:31:48;5.45;;;4.22;;
63398;SDS011;49533;-34.520;150.798;2023-11-25T03:35:04;4.15;;;3.83;;
63398;SDS011;49533;-34.520;150.798;2023-11-25T03:37:57;7.25;;;3.95;;
63398;SDS011;49533;-34.520;150.798;2023-11-25T03:41:13;4.38;;;4.03;;
63398;SDS011;49533;-34.520;150.798;2023-11-25T03:44:03;6.13;;;4.38;;
63398;SDS011;49533;-34.520;150.798;2023-11-25T03:49:39;4.18;;;3.88;;
63398;SDS011;49533;-34.520;150.798;2023-11-25T03:52:11;4.00;;;3.70;;
63398;SDS011;49533;-34.520;150.798;2023-11-25T03:54:41;4.32;;;3.70;;
63398;SDS011;49533;-34.520;150.798;2023-11-25T03:57:08;4.07;;;3.70;;
63398;SDS011;49533;-34.520;150.798;2023-11-25T03:59:35;4.65;;;4.25;;
63398;SDS011;49533;-34.520;150.798;2023-11-25T04:02:06;4.72;;;3.85;;
63398;SDS011;49533;-34.520;150.798;2023-11-25T04:04:34;4.40;;;4.10;;
63398;SDS011;49533;-34.520;150.798;2023-11-25T04:07:01;5.00;;;3.60;;
63398;SDS011;49533;-34.520;150.798;2023-11-25T04:09:29;3.75;;;3.45;;
63398;SDS011;49533;-34.520;150.798;2023-11-25T04:11:59;4.03;;;3.60;;
63398;SDS011;49533;-34.520;150.798;2023-11-25T04:14:27;3.63;;;3.42;;
63398;SDS011;49533;-34.520;150.798;2023-11-25T04:16:56;3.65;;;3.45;;
63398;SDS011;49533;-34.520;150.798;2023-11-25T04:19:23;3.78;;;3.47;;
63398;SDS011;49533;-34.520;150.798;2023-11-25T04:21:51;4.85;;;3.58;;
63398;SDS011;49533;-34.520;150.798;2023-11-25T04:24:19;6.68;;;3.67;;
63398;SDS011;49533;-34.520;150.798;2023-11-25T04:26:46;3.78;;;3.42;;
63398;SDS011;49533;-34.520;150.798;2023-11-25T04:29:13;4.60;;;3.55;;
63398;SDS011;49533;-34.520;150.798;2023-11-25T04:31:40;3.85;;;3.55;;
63398;SDS011;49533;-34.520;150.798;2023-11-25T04:34:07;3.83;;;3.55;;
63398;SDS011;49533;-34.520;150.798;2023-11-25T04:36:34;3.28;;;3.08;;
63398;SDS011;49533;-34.520;150.798;2023-11-25T04:39:04;3.50;;;3.20;;
63398;SDS011;49533;-34.520;150.798;2023-11-25T04:41:31;3.53;;;3.22;;
63398;SDS011;49533;-34.520;150.798;2023-11-25T04:43:59;3.40;;;3.20;;
63398;SDS011;49533;-34.520;150.798;2023-11-25T04:46:26;3.45;;;3.15;;
63398;SDS011;49533;-34.520;150.798;2023-11-25T04:48:53;3.83;;;3.20;;
63398;SDS011;49533;-34.520;150.798;2023-11-25T04:51:23;3.60;;;3.03;;
63398;SDS011;49533;-34.520;150.798;2023-11-25T04:53:50;3.25;;;2.95;;
63398;SDS011;49533;-34.520;150.798;2023-11-25T04:56:17;3.45;;;3.25;;
63398;SDS011;49533;-34.520;150.798;2023-11-25T04:58:44;3.40;;;3.10;;
63398;SDS011;49533;-34.520;150.798;2023-11-25T05:01:11;3.10;;;2.90;;
63398;SDS011;49533;-34.520;150.798;2023-11-25T05:03:38;4.50;;;3.00;;
63398;SDS011;49533;-34.520;150.798;2023-11-25T05:06:07;3.88;;;3.10;;
63398;SDS011;49533;-34.520;150.798;2023-11-25T05:08:35;3.10;;;2.78;;
63398;SDS011;49533;-34.520;150.798;2023-11-25T05:11:02;3.42;;;2.70;;
63398;SDS011;49533;-34.520;150.798;2023-11-25T05:13:53;5.00;;;3.03;;
63398;SDS011;49533;-34.520;150.798;2023-11-25T05:16:43;3.30;;;2.80;;
63398;SDS011;49533;-34.520;150.798;2023-11-25T05:22:55;4.18;;;3.30;;
63398;SDS011;49533;-34.520;150.798;2023-11-25T05:28:18;3.83;;;2.60;;
63398;SDS011;49533;-34.520;150.798;2023-11-25T05:33:39;3.28;;;2.92;;
63398;SDS011;49533;-34.520;150.798;2023-11-25T05:36:18;2.80;;;2.42;;
63398;SDS011;49533;-34.520;150.798;2023-11-25T05:38:50;3.50;;;2.50;;
63398;SDS011;49533;-34.520;150.798;2023-11-25T05:41:24;3.95;;;3.05;;
63398;SDS011;49533;-34.520;150.798;2023-11-25T05:46:25;4.50;;;2.92;;
63398;SDS011;49533;-34.520;150.798;2023-11-25T05:49:01;3.28;;;2.65;;
63398;SDS011;49533;-34.520;150.798;2023-11-25T05:51:51;4.80;;;2.30;;
63398;SDS011;49533;-34.520;150.798;2023-11-25T05:54:18;4.57;;;3.42;;
63398;SDS011;49533;-34.520;150.798;2023-11-25T05:56:48;5.65;;;3.22;;
63398;SDS011;49533;-34.520;150.798;2023-11-25T05:59:17;4.82;;;3.40;;
63398;SDS011;49533;-34.520;150.798;2023-11-25T06:01:44;4.60;;;2.75;;
63398;SDS011;49533;-34.520;150.798;2023-11-25T06:04:11;8.55;;;3.10;;
63398;SDS011;49533;-34.520;150.798;2023-11-25T06:06:38;4.43;;;2.85;;
63398;SDS011;49533;-34.520;150.798;2023-11-25T06:09:06;4.97;;;3.17;;
63398;SDS011;49533;-34.520;150.798;2023-11-25T06:11:37;6.88;;;2.60;;
63398;SDS011;49533;-34.520;150.798;2023-11-25T06:14:05;6.28;;;3.15;;
63398;SDS011;49533;-34.520;150.798;2023-11-25T06:16:32;3.40;;;2.38;;
63398;SDS011;49533;-34.520;150.798;2023-11-25T06:19:00;2.60;;;2.38;;
63398;SDS011;49533;-34.520;150.798;2023-11-25T06:21:29;3.70;;;2.95;;
63398;SDS011;49533;-34.520;150.798;2023-11-25T06:23:56;2.50;;;2.30;;
63398;SDS011;49533;-34.520;150.798;2023-11-25T06:26:25;4.05;;;2.70;;
63398;SDS011;49533;-34.520;150.798;2023-11-25T06:28:53;3.90;;;2.50;;
63398;SDS011;49533;-34.520;150.798;2023-11-25T06:31:20;3.15;;;2.42;;
63398;SDS011;49533;-34.520;150.798;2023-11-25T06:33:47;2.85;;;2.40;;
63398;SDS011;49533;-34.520;150.798;2023-11-25T06:36:15;4.40;;;2.90;;
63398;SDS011;49533;-34.520;150.798;2023-11-25T06:38:42;4.53;;;2.30;;
63398;SDS011;49533;-34.520;150.798;2023-11-25T06:41:09;2.38;;;2.17;;
63398;SDS011;49533;-34.520;150.798;2023-11-25T06:43:37;3.38;;;2.42;;
63398;SDS011;49533;-34.520;150.798;2023-11-25T06:46:04;2.40;;;2.20;;
63398;SDS011;49533;-34.520;150.798;2023-11-25T06:48:32;4.32;;;2.80;;
63398;SDS011;49533;-34.520;150.798;2023-11-25T06:50:59;3.67;;;2.65;;
63398;SDS011;49533;-34.520;150.798;2023-11-25T06:53:26;2.40;;;2.20;;
63398;SDS011;49533;-34.520;150.798;2023-11-25T06:55:56;2.38;;;2.20;;
63398;SDS011;49533;-34.520;150.798;2023-11-25T06:58:24;2.22;;;2.13;;
63398;SDS011;49533;-34.520;150.798;2023-11-25T07:00:51;4.50;;;2.63;;
63398;SDS011;49533;-34.520;150.798;2023-11-25T07:03:19;3.45;;;2.50;;
63398;SDS011;49533;-34.520;150.798;2023-11-25T07:05:46;5.70;;;2.70;;
63398;SDS011;49533;-34.520;150.798;2023-11-25T07:08:13;2.75;;;2.50;;
63398;SDS011;49533;-34.520;150.798;2023-11-25T07:10:41;2.33;;;2.22;;
63398;SDS011;49533;-34.520;150.798;2023-11-25T07:13:19;3.50;;;2.40;;
63398;SDS011;49533;-34.520;150.798;2023-11-25T07:15:47;2.83;;;2.60;;
63398;SDS011;49533;-34.520;150.798;2023-11-25T07:18:17;4.93;;;2.80;;
63398;SDS011;49533;-34.520;150.798;2023-11-25T07:20:45;3.20;;;2.55;;
63398;SDS011;49533;-34.520;150.798;2023-11-25T07:23:12;2.38;;;2.25;;
63398;SDS011;49533;-34.520;150.798;2023-11-25T07:25:40;2.78;;;2.58;;
63398;SDS011;49533;-34.520;150.798;2023-11-25T07:28:11;3.33;;;2.30;;
63398;SDS011;49533;-34.520;150.798;2023-11-25T07:30:41;2.70;;;2.50;;
63398;SDS011;49533;-34.520;150.798;2023-11-25T07:33:09;3.25;;;2.95;;
63398;SDS011;49533;-34.520;150.798;2023-11-25T07:35:36;3.40;;;2.60;;
63398;SDS011;49533;-34.520;150.798;2023-11-25T07:38:04;4.05;;;2.50;;
63398;SDS011;49533;-34.520;150.798;2023-11-25T07:40:31;2.95;;;2.55;;
63398;SDS011;49533;-34.520;150.798;2023-11-25T07:42:59;2.75;;;2.55;;
63398;SDS011;49533;-34.520;150.798;2023-11-25T07:45:26;3.78;;;2.92;;
63398;SDS011;49533;-34.520;150.798;2023-11-25T07:47:57;2.90;;;2.70;;
63398;SDS011;49533;-34.520;150.798;2023-11-25T07:50:24;4.22;;;3.03;;
63398;SDS011;49533;-34.520;150.798;2023-11-25T07:52:52;3.00;;;2.80;;
63398;SDS011;49533;-34.520;150.798;2023-11-25T07:55:19;2.92;;;2.70;;
63398;SDS011;49533;-34.520;150.798;2023-11-25T07:57:46;3.13;;;2.92;;
63398;SDS011;49533;-34.520;150.798;2023-11-25T08:00:14;3.03;;;2.78;;
63398;SDS011;49533;-34.520;150.798;2023-11-25T08:02:42;3.50;;;3.20;;
63398;SDS011;49533;-34.520;150.798;2023-11-25T08:05:09;3.55;;;3.22;;
63398;SDS011;49533;-34.520;150.798;2023-11-25T08:07:37;4.10;;;3.30;;
63398;SDS011;49533;-34.520;150.798;2023-11-25T08:10:04;3.00;;;2.90;;
63398;SDS011;49533;-34.520;150.798;2023-11-25T08:12:33;5.00;;;2.95;;
63398;SDS011;49533;-34.520;150.798;2023-11-25T08:15:00;2.70;;;2.60;;
63398;SDS011;49533;-34.520;150.798;2023-11-25T08:17:28;3.90;;;3.25;;
63398;SDS011;49533;-34.520;150.798;2023-11-25T08:19:55;3.17;;;2.90;;
63398;SDS011;49533;-34.520;150.798;2023-11-25T08:22:22;3.42;;;3.13;;
63398;SDS011;49533;-34.520;150.798;2023-11-25T08:24:49;3.20;;;3.00;;
63398;SDS011;49533;-34.520;150.798;2023-11-25T08:27:22;3.20;;;2.90;;
63398;SDS011;49533;-34.520;150.798;2023-11-25T08:29:49;3.00;;;2.80;;
63398;SDS011;49533;-34.520;150.798;2023-11-25T08:32:16;3.17;;;2.97;;
63398;SDS011;49533;-34.520;150.798;2023-11-25T08:34:43;3.25;;;3.00;;
63398;SDS011;49533;-34.520;150.798;2023-11-25T08:37:10;2.90;;;2.70;;
63398;SDS011;49533;-34.520;150.798;2023-11-25T08:39:37;2.97;;;2.78;;
63398;SDS011;49533;-34.520;150.798;2023-11-25T08:42:05;3.15;;;2.95;;
63398;SDS011;49533;-34.520;150.798;2023-11-25T08:44:37;3.40;;;3.20;;
63398;SDS011;49533;-34.520;150.798;2023-11-25T08:47:04;2.85;;;2.65;;
63398;SDS011;49533;-34.520;150.798;2023-11-25T08:49:32;3.40;;;3.20;;
63398;SDS011;49533;-34.520;150.798;2023-11-25T08:51:59;3.00;;;2.90;;
63398;SDS011;49533;-34.520;150.798;2023-11-25T08:54:26;2.90;;;2.80;;
63398;SDS011;49533;-34.520;150.798;2023-11-25T08:57:05;2.90;;;2.70;;
63398;SDS011;49533;-34.520;150.798;2023-11-25T08:59:35;2.90;;;2.70;;
63398;SDS011;49533;-34.520;150.798;2023-11-25T09:02:02;3.13;;;2.83;;
63398;SDS011;49533;-34.520;150.798;2023-11-25T09:04:30;3.28;;;3.00;;
63398;SDS011;49533;-34.520;150.798;2023-11-25T09:07:01;6.53;;;2.80;;
63398;SDS011;49533;-34.520;150.798;2023-11-25T09:09:29;3.58;;;2.95;;
63398;SDS011;49533;-34.520;150.798;2023-11-25T09:11:59;3.05;;;2.78;;
63398;SDS011;49533;-34.520;150.798;2023-11-25T09:14:27;2.92;;;2.83;;
63398;SDS011;49533;-34.520;150.798;2023-11-25T09:16:56;2.53;;;2.33;;
63398;SDS011;49533;-34.520;150.798;2023-11-25T09:19:27;2.50;;;2.40;;
63398;SDS011;49533;-34.520;150.798;2023-11-25T09:22:14;2.55;;;2.45;;
63398;SDS011;49533;-34.520;150.798;2023-11-25T09:24:47;3.08;;;2.83;;
63398;SDS011;49533;-34.520;150.798;2023-11-25T09:27:43;2.40;;;2.30;;
63398;SDS011;49533;-34.520;150.798;2023-11-25T09:30:10;2.80;;;2.63;;
63398;SDS011;49533;-34.520;150.798;2023-11-25T09:32:43;2.60;;;2.40;;
63398;SDS011;49533;-34.520;150.798;2023-11-25T09:35:11;2.50;;;2.40;;
63398;SDS011;49533;-34.520;150.798;2023-11-25T09:37:40;2.40;;;2.30;;
63398;SDS011;49533;-34.520;150.798;2023-11-25T09:40:09;3.10;;;2.90;;
63398;SDS011;49533;-34.520;150.798;2023-11-25T09:42:40;2.47;;;2.38;;
63398;SDS011;49533;-34.520;150.798;2023-11-25T09:45:12;2.80;;;2.60;;
63398;SDS011;49533;-34.520;150.798;2023-11-25T09:47:43;2.63;;;2.50;;
63398;SDS011;49533;-34.520;150.798;2023-11-25T09:50:10;2.90;;;2.70;;
63398;SDS011;49533;-34.520;150.798;2023-11-25T09:55:18;2.90;;;2.70;;
63398;SDS011;49533;-34.520;150.798;2023-11-25T09:57:54;3.00;;;2.60;;
63398;SDS011;49533;-34.520;150.798;2023-11-25T10:00:31;2.50;;;2.40;;
63398;SDS011;49533;-34.520;150.798;2023-11-25T10:02:59;2.40;;;2.30;;
63398;SDS011;49533;-34.520;150.798;2023-11-25T10:05:27;2.80;;;2.55;;
63398;SDS011;49533;-34.520;150.798;2023-11-25T10:07:54;2.85;;;2.50;;
63398;SDS011;49533;-34.520;150.798;2023-11-25T10:10:24;2.80;;;2.60;;
63398;SDS011;49533;-34.520;150.798;2023-11-25T10:12:54;2.90;;;2.33;;
63398;SDS011;49533;-34.520;150.798;2023-11-25T10:15:21;2.63;;;2.53;;
63398;SDS011;49533;-34.520;150.798;2023-11-25T10:17:49;2.63;;;2.45;;
63398;SDS011;49533;-34.520;150.798;2023-11-25T10:20:16;2.53;;;2.33;;
63398;SDS011;49533;-34.520;150.798;2023-11-25T10:22:49;2.75;;;2.65;;
63398;SDS011;49533;-34.520;150.798;2023-11-25T10:25:39;2.25;;;2.15;;
63398;SDS011;49533;-34.520;150.798;2023-11-25T10:28:10;2.97;;;2.70;;
63398;SDS011;49533;-34.520;150.798;2023-11-25T10:30:41;2.60;;;2.50;;
63398;SDS011;49533;-34.520;150.798;2023-11-25T10:33:30;2.88;;;2.65;;
63398;SDS011;49533;-34.520;150.798;2023-11-25T10:35:57;2.50;;;2.40;;
63398;SDS011;49533;-34.520;150.798;2023-11-25T10:38:26;2.15;;;2.03;;
63398;SDS011;49533;-34.520;150.798;2023-11-25T10:41:00;2.75;;;2.60;;
63398;SDS011;49533;-34.520;150.798;2023-11-25T10:43:28;3.55;;;2.30;;
63398;SDS011;49533;-34.520;150.798;2023-11-25T10:46:03;3.83;;;2.70;;
63398;SDS011;49533;-34.520;150.798;2023-11-25T10:48:34;2.65;;;2.03;;
63398;SDS011;49533;-34.520;150.798;2023-11-25T10:51:06;2.55;;;2.35;;
63398;SDS011;49533;-34.520;150.798;2023-11-25T10:53:39;2.53;;;2.42;;
63398;SDS011;49533;-34.520;150.798;2023-11-25T10:56:23;2.20;;;2.10;;
63398;SDS011;49533;-34.520;150.798;2023-11-25T10:58:54;2.47;;;2.28;;
63398;SDS011;49533;-34.520;150.798;2023-11-25T11:01:35;2.97;;;2.60;;
63398;SDS011;49533;-34.520;150.798;2023-11-25T11:04:07;2.20;;;2.10;;
63398;SDS011;49533;-34.520;150.798;2023-11-25T11:06:55;2.63;;;2.42;;
63398;SDS011;49533;-34.520;150.798;2023-11-25T11:09:44;2.63;;;2.38;;
63398;SDS011;49533;-34.520;150.798;2023-11-25T11:13:02;2.60;;;2.50;;
63398;SDS011;49533;-34.520;150.798;2023-11-25T11:15:57;3.78;;;2.67;;
63398;SDS011;49533;-34.520;150.798;2023-11-25T11:18:52;2.25;;;2.15;;
63398;SDS011;49533;-34.520;150.798;2023-11-25T11:21:46;2.38;;;2.25;;
63398;SDS011;49533;-34.520;150.798;2023-11-25T11:45:39;2.33;;;2.13;;
63398;SDS011;49533;-34.520;150.798;2023-11-25T11:48:53;3.33;;;2.22;;
63398;SDS011;49533;-34.520;150.798;2023-11-25T11:54:44;2.70;;;2.47;;
63398;SDS011;49533;-34.520;150.798;2023-11-25T12:01:26;2.20;;;2.10;;
63398;SDS011;49533;-34.520;150.798;2023-11-25T12:04:18;2.50;;;2.30;;
63398;SDS011;49533;-34.520;150.798;2023-11-25T12:07:08;2.50;;;2.30;;
63398;SDS011;49533;-34.520;150.798;2023-11-25T12:13:41;2.97;;;2.53;;
63398;SDS011;49533;-34.520;150.798;2023-11-25T12:16:22;2.50;;;2.40;;
63398;SDS011;49533;-34.520;150.798;2023-11-25T12:21:55;2.00;;;1.90;;
63398;SDS011;49533;-34.520;150.798;2023-11-25T12:24:57;2.20;;;2.10;;
63398;SDS011;49533;-34.520;150.798;2023-11-25T12:27:51;2.05;;;1.95;;
63398;SDS011;49533;-34.520;150.798;2023-11-25T12:33:10;2.33;;;2.13;;
63398;SDS011;49533;-34.520;150.798;2023-11-25T12:35:47;2.28;;;2.17;;
63398;SDS011;49533;-34.520;150.798;2023-11-25T12:38:25;2.47;;;2.30;;
63398;SDS011;49533;-34.520;150.798;2023-11-25T12:41:00;2.50;;;2.30;;
63398;SDS011;49533;-34.520;150.798;2023-11-25T12:46:37;2.25;;;2.13;;
63398;SDS011;49533;-34.520;150.798;2023-11-25T12:49:27;3.65;;;2.50;;
63398;SDS011;49533;-34.520;150.798;2023-11-25T12:52:00;3.10;;;2.42;;
63398;SDS011;49533;-34.520;150.798;2023-11-25T12:57:23;2.58;;;2.47;;
63398;SDS011;49533;-34.520;150.798;2023-11-25T13:00:15;2.45;;;2.35;;
63398;SDS011;49533;-34.520;150.798;2023-11-25T13:02:51;2.20;;;2.00;;
63398;SDS011;49533;-34.520;150.798;2023-11-25T13:08:29;3.35;;;2.25;;
63398;SDS011;49533;-34.520;150.798;2023-11-25T13:11:23;2.10;;;2.00;;
63398;SDS011;49533;-34.520;150.798;2023-11-25T13:14:14;2.60;;;2.40;;
63398;SDS011;49533;-34.520;150.798;2023-11-25T13:16:58;3.28;;;2.10;;
63398;SDS011;49533;-34.520;150.798;2023-11-25T13:19:33;2.55;;;2.42;;
63398;SDS011;49533;-34.520;150.798;2023-11-25T13:22:04;2.30;;;2.20;;
63398;SDS011;49533;-34.520;150.798;2023-11-25T13:24:36;2.45;;;2.22;;
63398;SDS011;49533;-34.520;150.798;2023-11-25T13:27:19;2.67;;;2.47;;
63398;SDS011;49533;-34.520;150.798;2023-11-25T13:29:55;2.30;;;2.10;;
63398;SDS011;49533;-34.520;150.798;2023-11-25T13:32:26;2.30;;;2.20;;
63398;SDS011;49533;-34.520;150.798;2023-11-25T13:35:15;2.20;;;2.10;;
63398;SDS011;49533;-34.520;150.798;2023-11-25T13:37:47;2.22;;;1.70;;
63398;SDS011;49533;-34.520;150.798;2023-11-25T13:40:26;2.72;;;1.85;;
63398;SDS011;49533;-34.520;150.798;2023-11-25T13:43:08;2.03;;;1.92;;
63398;SDS011;49533;-34.520;150.798;2023-11-25T13:45:44;2.45;;;2.25;;
63398;SDS011;49533;-34.520;150.798;2023-11-25T13:48:18;4.00;;;2.03;;
63398;SDS011;49533;-34.520;150.798;2023-11-25T13:50:46;2.38;;;2.10;;
63398;SDS011;49533;-34.520;150.798;2023-11-25T13:53:17;2.10;;;2.00;;
63398;SDS011;49533;-34.520;150.798;2023-11-25T13:55:56;3.35;;;2.30;;
63398;SDS011;49533;-34.520;150.798;2023-11-25T13:58:30;3.38;;;2.28;;
63398;SDS011;49533;-34.520;150.798;2023-11-25T14:01:38;2.20;;;2.00;;
63398;SDS011;49533;-34.520;150.798;2023-11-25T14:04:13;2.90;;;2.10;;
63398;SDS011;49533;-34.520;150.798;2023-11-25T14:07:00;2.53;;;2.10;;
63398;SDS011;49533;-34.520;150.798;2023-11-25T14:09:39;2.08;;;1.92;;
63398;SDS011;49533;-34.520;150.798;2023-11-25T14:12:15;2.10;;;2.00;;
63398;SDS011;49533;-34.520;150.798;2023-11-25T14:14:45;2.20;;;2.00;;
63398;SDS011;49533;-34.520;150.798;2023-11-25T14:17:37;2.17;;;2.08;;
63398;SDS011;49533;-34.520;150.798;2023-11-25T14:20:12;2.13;;;1.95;;
63398;SDS011;49533;-34.520;150.798;2023-11-25T14:25:16;2.20;;;2.10;;
63398;SDS011;49533;-34.520;150.798;2023-11-25T14:27:47;1.92;;;1.83;;
63398;SDS011;49533;-34.520;150.798;2023-11-25T14:30:18;1.90;;;1.80;;
63398;SDS011;49533;-34.520;150.798;2023-11-25T14:32:54;3.30;;;2.00;;
63398;SDS011;49533;-34.520;150.798;2023-11-25T14:35:22;2.90;;;2.00;;
63398;SDS011;49533;-34.520;150.798;2023-11-25T14:38:03;2.28;;;2.10;;
63398;SDS011;49533;-34.520;150.798;2023-11-25T14:40:33;2.13;;;2.03;;
63398;SDS011;49533;-34.520;150.798;2023-11-25T14:43:06;2.20;;;2.10;;
63398;SDS011;49533;-34.520;150.798;2023-11-25T14:45:40;2.00;;;1.90;;
63398;SDS011;49533;-34.520;150.798;2023-11-25T14:48:14;2.83;;;2.50;;
63398;SDS011;49533;-34.520;150.798;2023-11-25T14:53:17;2.78;;;1.70;;
63398;SDS011;49533;-34.520;150.798;2023-11-25T14:55:56;2.00;;;1.80;;
63398;SDS011;49533;-34.520;150.798;2023-11-25T14:58:33;1.80;;;1.73;;
63398;SDS011;49533;-34.520;150.798;2023-11-25T15:01:07;3.50;;;1.88;;
63398;SDS011;49533;-34.520;150.798;2023-11-25T15:03:50;1.80;;;1.70;;
63398;SDS011;49533;-34.520;150.798;2023-11-25T15:06:23;2.03;;;1.70;;
63398;SDS011;49533;-34.520;150.798;2023-11-25T15:08:54;1.92;;;1.75;;
63398;SDS011;49533;-34.520;150.798;2023-11-25T15:11:27;1.83;;;1.77;;
63398;SDS011;49533;-34.520;150.798;2023-11-25T15:14:01;4.85;;;1.88;;
63398;SDS011;49533;-34.520;150.798;2023-11-25T15:16:36;2.00;;;1.90;;
63398;SDS011;49533;-34.520;150.798;2023-11-25T15:19:06;1.98;;;1.88;;
63398;SDS011;49533;-34.520;150.798;2023-11-25T15:21:33;2.85;;;1.75;;
63398;SDS011;49533;-34.520;150.798;2023-11-25T15:24:00;1.90;;;1.80;;
63398;SDS011;49533;-34.520;150.798;2023-11-25T15:26:27;1.80;;;1.70;;
63398;SDS011;49533;-34.520;150.798;2023-11-25T15:28:54;1.90;;;1.80;;
63398;SDS011;49533;-34.520;150.798;2023-11-25T15:31:24;2.85;;;1.60;;
63398;SDS011;49533;-34.520;150.798;2023-11-25T15:33:52;2.03;;;1.92;;
63398;SDS011;49533;-34.520;150.798;2023-11-25T15:36:19;1.90;;;1.80;;
63398;SDS011;49533;-34.520;150.798;2023-11-25T15:38:47;2.00;;;1.90;;
63398;SDS011;49533;-34.520;150.798;2023-11-25T15:41:14;1.95;;;1.85;;
63398;SDS011;49533;-34.520;150.798;2023-11-25T15:43:41;2.17;;;2.08;;
63398;SDS011;49533;-34.520;150.798;2023-11-25T15:46:08;3.20;;;2.03;;
63398;SDS011;49533;-34.520;150.798;2023-11-25T15:48:36;2.08;;;1.83;;
63398;SDS011;49533;-34.520;150.798;2023-11-25T15:51:06;2.20;;;2.00;;
63398;SDS011;49533;-34.520;150.798;2023-11-25T15:53:33;2.17;;;1.98;;
63398;SDS011;49533;-34.520;150.798;2023-11-25T15:56:00;1.90;;;1.80;;
63398;SDS011;49533;-34.520;150.798;2023-11-25T15:58:27;1.90;;;1.80;;
63398;SDS011;49533;-34.520;150.798;2023-11-25T16:00:57;1.85;;;1.75;;
63398;SDS011;49533;-34.520;150.798;2023-11-25T16:03:25;2.22;;;1.60;;
63398;SDS011;49533;-34.520;150.798;2023-11-25T16:05:52;1.70;;;1.60;;
63398;SDS011;49533;-34.520;150.798;2023-11-25T16:08:20;1.58;;;1.42;;
63398;SDS011;49533;-34.520;150.798;2023-11-25T16:10:47;7.68;;;1.75;;
63398;SDS011;49533;-34.520;150.798;2023-11-25T16:13:17;1.85;;;1.75;;
63398;SDS011;49533;-34.520;150.798;2023-11-25T16:15:47;1.42;;;1.33;;
63398;SDS011;49533;-34.520;150.798;2023-11-25T16:18:14;1.75;;;1.65;;
63398;SDS011;49533;-34.520;150.798;2023-11-25T16:20:43;2.17;;;1.67;;
63398;SDS011;49533;-34.520;150.798;2023-11-25T16:23:10;1.67;;;1.58;;
63398;SDS011;49533;-34.520;150.798;2023-11-25T16:25:37;2.03;;;1.45;;
63398;SDS011;49533;-34.520;150.798;2023-11-25T16:28:04;1.40;;;1.40;;
63398;SDS011;49533;-34.520;150.798;2023-11-25T16:30:32;2.53;;;1.15;;
63398;SDS011;49533;-34.520;150.798;2023-11-25T16:33:05;2.35;;;1.40;;
63398;SDS011;49533;-34.520;150.798;2023-11-25T16:35:33;1.40;;;1.30;;
63398;SDS011;49533;-34.520;150.798;2023-11-25T16:38:03;1.30;;;1.20;;
63398;SDS011;49533;-34.520;150.798;2023-11-25T16:40:30;1.40;;;1.27;;
63398;SDS011;49533;-34.520;150.798;2023-11-25T16:42:57;1.95;;;1.20;;
63398;SDS011;49533;-34.520;150.798;2023-11-25T16:45:27;2.25;;;1.05;;
63398;SDS011;49533;-34.520;150.798;2023-11-25T16:47:56;1.40;;;1.27;;